This London Heathrow Airport weather forecast is generated by the Met Office Weather Widget

AirNav RadarBox - Metar Weather
  London Heathrow Metar Weather
 

METAR = EGLL 230320Z 28005KT CAVOK 10/07 Q1014 NOSIG

STATION........ EGLL
OBSERVED....... Sat Aug 23, 04:20 BST
NOW............ Sat Aug 23, 04:32 BST
AGE............ 12 min ago
WIND........... W at 6 mph
VISIBILITY..... greater than 7 miles
CLOUDS......... clear skies
TEMP........... 50°F (10°C)
WIND CHILL..... 48°F (9°C)
DEWPT.......... 45°F (7°C)
HUMIDITY....... 82%
BAROMETER...... 1014 hPa (29.94 in Hg)

Sat Aug 23 2014, sunrise time : 05:04
Sat Aug 23 2014, sunset time : 19:03